createdAt,value
2018-03-15T00:09:03.700Z,89.75
2018-03-15T00:15:01.919Z,89.75
2018-03-15T00:20:01.845Z,90.04
2018-03-15T00:30:05.822Z,90.40
2018-03-15T00:45:03.693Z,90.35
2018-03-15T01:00:02.841Z,90.79
2018-03-15T01:15:01.693Z,91.82
2018-03-15T01:30:03.700Z,93.08
2018-03-15T01:45:04.843Z,92.66
2018-03-15T01:50:02.021Z,92.23
2018-03-15T02:00:03.785Z,92.07
2018-03-15T02:05:01.673Z,92.07
2018-03-15T02:15:02.652Z,92.12
2018-03-15T02:20:08.650Z,91.44
2018-03-15T02:30:04.883Z,90.21
2018-03-15T02:40:05.916Z,90.45
2018-03-15T02:45:01.606Z,90.45
2018-03-15T03:00:06.695Z,90.30
2018-03-15T03:15:01.725Z,90.30
2018-03-15T03:30:01.698Z,87.69
2018-03-15T03:45:02.663Z,87.67
2018-03-15T03:50:04.846Z,87.58
2018-03-15T04:00:06.650Z,86.39
2018-03-15T04:06:01.615Z,87.56
2018-03-15T04:21:01.770Z,88.72
2018-03-15T04:36:01.691Z,91.02
2018-03-15T04:51:01.529Z,91.77
2018-03-15T04:56:01.540Z,91.09
2018-03-15T05:11:01.710Z,90.46
2018-03-15T05:26:02.663Z,88.82
2018-03-15T05:41:02.577Z,88.29
2018-03-15T05:56:01.533Z,88.67
2018-03-15T06:11:01.520Z,88.73
2018-03-15T06:26:01.557Z,88.85
2018-03-15T06:41:01.520Z,88.99
2018-03-15T06:56:06.567Z,88.62
2018-03-15T07:06:01.548Z,88.01
2018-03-15T07:21:01.543Z,88.68
2018-03-15T07:36:01.542Z,89.11
2018-03-15T07:51:01.525Z,89.21
2018-03-15T07:56:01.751Z,88.84
2018-03-15T08:11:01.539Z,87.75
2018-03-15T08:16:01.537Z,85.98
2018-03-15T08:31:07.567Z,84.91
2018-03-15T08:46:01.603Z,83.19
2018-03-15T09:01:01.528Z,83.03
2018-03-15T09:11:02.779Z,82.92
2018-03-15T09:16:02.007Z,81.59
2018-03-15T09:21:04.847Z,81.59
2018-03-15T09:31:01.531Z,80.33
2018-03-15T09:46:02.013Z,78.24
2018-03-15T09:51:03.429Z,78.24
2018-03-15T09:56:01.688Z,78.07
2018-03-15T10:01:02.746Z,78.07
2018-03-15T10:06:03.427Z,76.63
2018-03-15T10:11:01.751Z,76.63
2018-03-15T10:26:03.833Z,75.20
2018-03-15T10:41:05.794Z,74.34
2018-03-15T10:56:07.771Z,76.01
2018-03-15T11:11:05.809Z,74.75
2018-03-15T11:26:02.767Z,75.43
2018-03-15T11:31:01.740Z,75.43
2018-03-15T11:46:01.393Z,74.57
2018-03-15T11:56:02.927Z,74.54
2018-03-15T12:11:02.138Z,74.02
2018-03-15T12:26:07.356Z,73.79
2018-03-15T12:36:02.737Z,73.86
2018-03-15T12:41:02.780Z,73.86
2018-03-15T12:51:01.711Z,73.92
2018-03-15T13:01:01.461Z,74.75
2018-03-15T13:16:01.398Z,74.88
2018-03-15T13:26:06.703Z,72.96
2018-03-15T13:31:01.603Z,72.96
2018-03-15T13:41:01.704Z,73.39
2018-03-15T13:56:02.682Z,72.81
2018-03-15T14:11:01.703Z,74.22
2018-03-15T14:16:01.618Z,73.32
2018-03-15T14:26:01.688Z,72.81
2018-03-15T14:36:02.643Z,74.13
2018-03-15T14:46:01.401Z,73.84
2018-03-15T14:56:02.907Z,74.27
2018-03-15T15:11:01.696Z,74.70
2018-03-15T15:21:02.684Z,76.74
2018-03-15T15:31:02.027Z,75.30
2018-03-15T15:41:01.749Z,75.42
2018-03-15T15:56:01.705Z,75.52
2018-03-15T16:01:06.738Z,75.52
2018-03-15T16:16:02.012Z,75.93
2018-03-15T16:21:01.821Z,75.93
2018-03-15T16:26:06.741Z,76.08
2018-03-15T16:36:06.823Z,76.83
2018-03-15T16:46:01.733Z,78.07
2018-03-15T16:56:01.968Z,77.91
2018-03-15T17:11:01.776Z,79.99
2018-03-15T17:26:01.747Z,80.44
2018-03-15T17:41:01.743Z,79.01
2018-03-15T17:56:01.741Z,80.17
2018-03-15T18:11:02.879Z,80.74
2018-03-15T18:16:02.857Z,81.39
2018-03-15T18:26:01.744Z,79.00
2018-03-15T18:41:02.668Z,78.67
2018-03-15T18:57:03.679Z,77.63
2018-03-15T19:12:01.692Z,77.87
2018-03-15T19:27:01.707Z,79.00
2018-03-15T19:42:03.691Z,78.65
2018-03-15T19:57:02.641Z,79.74
2018-03-15T20:02:06.694Z,79.74
2018-03-15T20:07:01.636Z,80.73
2018-03-15T20:22:01.718Z,81.24
2018-03-15T20:32:01.690Z,81.70
2018-03-15T20:47:02.873Z,82.57
2018-03-15T21:02:02.658Z,82.77
2018-03-15T21:17:02.684Z,83.29
2018-03-15T21:32:01.709Z,82.28
2018-03-15T21:47:01.733Z,82.08
2018-03-15T22:02:06.702Z,82.58
2018-03-15T22:17:01.730Z,82.68
2018-03-15T22:32:01.703Z,82.99
2018-03-15T22:47:01.699Z,82.38
2018-03-15T23:02:01.686Z,81.37
2018-03-15T23:17:01.678Z,82.07
2018-03-15T23:32:02.727Z,81.99
2018-03-15T23:47:06.689Z,80.82
